sensor_id;sensor_type;location;lat;lon;timestamp;P1;durP1;ratioP1;P2;durP2;ratioP2
56037;SDS011;41907;47.848;9.000;2023-02-18T00:00:23;4.22;;;3.25;;
56037;SDS011;41907;47.848;9.000;2023-02-18T00:02:49;8.25;;;4.05;;
56037;SDS011;41907;47.848;9.000;2023-02-18T00:05:14;8.70;;;4.22;;
56037;SDS011;41907;47.848;9.000;2023-02-18T00:07:40;6.05;;;2.92;;
56037;SDS011;41907;47.848;9.000;2023-02-18T00:10:08;6.68;;;4.35;;
56037;SDS011;41907;47.848;9.000;2023-02-18T00:12:36;10.98;;;5.05;;
56037;SDS011;41907;47.848;9.000;2023-02-18T00:15:01;9.70;;;4.80;;
56037;SDS011;41907;47.848;9.000;2023-02-18T00:17:27;6.07;;;3.22;;
56037;SDS011;41907;47.848;9.000;2023-02-18T00:19:53;4.22;;;2.20;;
56037;SDS011;41907;47.848;9.000;2023-02-18T00:22:18;9.65;;;7.00;;
56037;SDS011;41907;47.848;9.000;2023-02-18T00:24:44;11.25;;;7.32;;
56037;SDS011;41907;47.848;9.000;2023-02-18T00:27:09;12.40;;;8.07;;
56037;SDS011;41907;47.848;9.000;2023-02-18T00:29:34;50.78;;;42.78;;
56037;SDS011;41907;47.848;9.000;2023-02-18T00:32:00;34.63;;;30.15;;
56037;SDS011;41907;47.848;9.000;2023-02-18T00:34:25;48.28;;;38.30;;
56037;SDS011;41907;47.848;9.000;2023-02-18T00:36:50;21.33;;;17.58;;
56037;SDS011;41907;47.848;9.000;2023-02-18T00:39:16;13.50;;;10.68;;
56037;SDS011;41907;47.848;9.000;2023-02-18T00:41:41;13.65;;;9.73;;
56037;SDS011;41907;47.848;9.000;2023-02-18T00:44:08;12.27;;;8.63;;
56037;SDS011;41907;47.848;9.000;2023-02-18T00:46:33;73.88;;;53.47;;
56037;SDS011;41907;47.848;9.000;2023-02-18T00:48:59;17.95;;;12.05;;
56037;SDS011;41907;47.848;9.000;2023-02-18T00:51:25;40.97;;;29.25;;
56037;SDS011;41907;47.848;9.000;2023-02-18T00:53:50;39.20;;;27.48;;
56037;SDS011;41907;47.848;9.000;2023-02-18T00:56:16;10.27;;;8.35;;
56037;SDS011;41907;47.848;9.000;2023-02-18T00:58:41;7.13;;;4.88;;
56037;SDS011;41907;47.848;9.000;2023-02-18T01:01:07;5.22;;;4.18;;
56037;SDS011;41907;47.848;9.000;2023-02-18T01:03:33;7.25;;;4.07;;
56037;SDS011;41907;47.848;9.000;2023-02-18T01:06:00;10.38;;;9.05;;
56037;SDS011;41907;47.848;9.000;2023-02-18T01:08:25;10.63;;;7.90;;
56037;SDS011;41907;47.848;9.000;2023-02-18T01:10:52;8.30;;;6.43;;
56037;SDS011;41907;47.848;9.000;2023-02-18T01:13:19;7.88;;;5.05;;
56037;SDS011;41907;47.848;9.000;2023-02-18T01:15:45;9.52;;;4.88;;
56037;SDS011;41907;47.848;9.000;2023-02-18T01:18:10;4.05;;;3.17;;
56037;SDS011;41907;47.848;9.000;2023-02-18T01:20:38;5.75;;;4.97;;
56037;SDS011;41907;47.848;9.000;2023-02-18T01:23:04;15.95;;;12.90;;
56037;SDS011;41907;47.848;9.000;2023-02-18T01:25:30;7.97;;;5.88;;
56037;SDS011;41907;47.848;9.000;2023-02-18T01:27:56;3.38;;;2.90;;
56037;SDS011;41907;47.848;9.000;2023-02-18T01:30:22;3.25;;;2.45;;
56037;SDS011;41907;47.848;9.000;2023-02-18T01:32:47;6.85;;;5.10;;
56037;SDS011;41907;47.848;9.000;2023-02-18T01:35:13;6.75;;;4.10;;
56037;SDS011;41907;47.848;9.000;2023-02-18T01:37:40;8.05;;;5.45;;
56037;SDS011;41907;47.848;9.000;2023-02-18T01:40:07;4.88;;;3.70;;
56037;SDS011;41907;47.848;9.000;2023-02-18T01:42:34;7.63;;;4.38;;
56037;SDS011;41907;47.848;9.000;2023-02-18T01:53:38;1.80;;;1.45;;
56037;SDS011;41907;47.848;9.000;2023-02-18T01:59:31;2.38;;;1.55;;
56037;SDS011;41907;47.848;9.000;2023-02-18T02:02:02;2.38;;;1.60;;
56037;SDS011;41907;47.848;9.000;2023-02-18T02:04:28;2.28;;;1.60;;
56037;SDS011;41907;47.848;9.000;2023-02-18T02:06:53;3.03;;;1.65;;
56037;SDS011;41907;47.848;9.000;2023-02-18T02:09:19;2.63;;;1.85;;
56037;SDS011;41907;47.848;9.000;2023-02-18T02:12:04;1.98;;;1.65;;
56037;SDS011;41907;47.848;9.000;2023-02-18T02:26:53;2.88;;;1.98;;
56037;SDS011;41907;47.848;9.000;2023-02-18T02:29:50;2.95;;;1.70;;
56037;SDS011;41907;47.848;9.000;2023-02-18T02:35:25;3.65;;;2.92;;
56037;SDS011;41907;47.848;9.000;2023-02-18T02:37:59;3.13;;;1.85;;
56037;SDS011;41907;47.848;9.000;2023-02-18T02:45:56;5.88;;;2.53;;
56037;SDS011;41907;47.848;9.000;2023-02-18T02:48:31;3.15;;;2.58;;
56037;SDS011;41907;47.848;9.000;2023-02-18T02:53:29;13.02;;;7.18;;
56037;SDS011;41907;47.848;9.000;2023-02-18T02:55:57;17.08;;;7.82;;
56037;SDS011;41907;47.848;9.000;2023-02-18T02:58:23;22.38;;;10.15;;
56037;SDS011;41907;47.848;9.000;2023-02-18T03:09:08;18.48;;;7.65;;
56037;SDS011;41907;47.848;9.000;2023-02-18T03:11:40;13.05;;;5.07;;
56037;SDS011;41907;47.848;9.000;2023-02-18T03:14:27;8.48;;;4.03;;
56037;SDS011;41907;47.848;9.000;2023-02-18T03:16:58;8.38;;;4.45;;
56037;SDS011;41907;47.848;9.000;2023-02-18T03:19:30;6.93;;;4.10;;
56037;SDS011;41907;47.848;9.000;2023-02-18T03:22:02;9.55;;;4.45;;
56037;SDS011;41907;47.848;9.000;2023-02-18T03:24:48;7.57;;;3.72;;
56037;SDS011;41907;47.848;9.000;2023-02-18T03:27:26;10.43;;;4.13;;
56037;SDS011;41907;47.848;9.000;2023-02-18T03:30:18;8.50;;;4.30;;
56037;SDS011;41907;47.848;9.000;2023-02-18T03:32:45;9.13;;;4.30;;
56037;SDS011;41907;47.848;9.000;2023-02-18T03:35:14;8.23;;;4.25;;
56037;SDS011;41907;47.848;9.000;2023-02-18T03:37:47;9.20;;;4.63;;
56037;SDS011;41907;47.848;9.000;2023-02-18T03:40:16;6.80;;;3.90;;
56037;SDS011;41907;47.848;9.000;2023-02-18T03:42:43;5.88;;;2.63;;
56037;SDS011;41907;47.848;9.000;2023-02-18T03:45:08;8.45;;;4.68;;
56037;SDS011;41907;47.848;9.000;2023-02-18T03:47:34;6.90;;;4.35;;
56037;SDS011;41907;47.848;9.000;2023-02-18T03:50:00;7.47;;;4.22;;
56037;SDS011;41907;47.848;9.000;2023-02-18T03:52:26;8.63;;;5.20;;
56037;SDS011;41907;47.848;9.000;2023-02-18T03:54:51;6.20;;;3.83;;
56037;SDS011;41907;47.848;9.000;2023-02-18T03:57:17;6.88;;;3.47;;
56037;SDS011;41907;47.848;9.000;2023-02-18T03:59:42;6.32;;;3.65;;
56037;SDS011;41907;47.848;9.000;2023-02-18T04:02:07;9.30;;;3.63;;
56037;SDS011;41907;47.848;9.000;2023-02-18T04:04:33;11.48;;;4.72;;
56037;SDS011;41907;47.848;9.000;2023-02-18T04:06:58;7.53;;;5.25;;
56037;SDS011;41907;47.848;9.000;2023-02-18T04:09:23;13.50;;;6.22;;
56037;SDS011;41907;47.848;9.000;2023-02-18T04:11:49;13.07;;;7.35;;
56037;SDS011;41907;47.848;9.000;2023-02-18T04:14:14;15.50;;;8.25;;
56037;SDS011;41907;47.848;9.000;2023-02-18T04:16:39;11.75;;;6.45;;
56037;SDS011;41907;47.848;9.000;2023-02-18T04:19:05;7.32;;;4.97;;
56037;SDS011;41907;47.848;9.000;2023-02-18T04:21:31;8.68;;;6.03;;
56037;SDS011;41907;47.848;9.000;2023-02-18T04:23:58;7.45;;;5.53;;
56037;SDS011;41907;47.848;9.000;2023-02-18T04:26:24;4.78;;;3.85;;
56037;SDS011;41907;47.848;9.000;2023-02-18T04:28:49;9.82;;;8.32;;
56037;SDS011;41907;47.848;9.000;2023-02-18T04:31:14;11.98;;;8.93;;
56037;SDS011;41907;47.848;9.000;2023-02-18T04:33:40;18.23;;;15.85;;
56037;SDS011;41907;47.848;9.000;2023-02-18T04:36:05;33.42;;;28.48;;
56037;SDS011;41907;47.848;9.000;2023-02-18T04:38:31;47.47;;;38.33;;
56037;SDS011;41907;47.848;9.000;2023-02-18T04:40:56;107.15;;;93.53;;
56037;SDS011;41907;47.848;9.000;2023-02-18T04:43:22;134.93;;;111.50;;
56037;SDS011;41907;47.848;9.000;2023-02-18T04:45:47;47.35;;;40.95;;
56037;SDS011;41907;47.848;9.000;2023-02-18T04:48:12;40.60;;;33.63;;
56037;SDS011;41907;47.848;9.000;2023-02-18T04:50:38;25.75;;;20.13;;
56037;SDS011;41907;47.848;9.000;2023-02-18T04:53:04;22.00;;;14.90;;
56037;SDS011;41907;47.848;9.000;2023-02-18T04:55:29;21.42;;;12.05;;
56037;SDS011;41907;47.848;9.000;2023-02-18T04:57:54;71.93;;;59.47;;
56037;SDS011;41907;47.848;9.000;2023-02-18T05:00:20;89.72;;;69.90;;
56037;SDS011;41907;47.848;9.000;2023-02-18T05:02:45;39.42;;;29.27;;
56037;SDS011;41907;47.848;9.000;2023-02-18T05:05:12;19.48;;;9.25;;
56037;SDS011;41907;47.848;9.000;2023-02-18T05:07:38;22.27;;;19.73;;
56037;SDS011;41907;47.848;9.000;2023-02-18T05:10:05;60.63;;;53.35;;
56037;SDS011;41907;47.848;9.000;2023-02-18T05:12:31;13.13;;;11.73;;
56037;SDS011;41907;47.848;9.000;2023-02-18T05:14:56;30.83;;;27.58;;
56037;SDS011;41907;47.848;9.000;2023-02-18T05:17:22;6.28;;;5.10;;
56037;SDS011;41907;47.848;9.000;2023-02-18T05:19:47;2.45;;;1.75;;
56037;SDS011;41907;47.848;9.000;2023-02-18T05:22:12;4.15;;;1.95;;
56037;SDS011;41907;47.848;9.000;2023-02-18T05:24:38;1.63;;;1.02;;
56037;SDS011;41907;47.848;9.000;2023-02-18T05:27:03;1.58;;;0.80;;
56037;SDS011;41907;47.848;9.000;2023-02-18T05:29:28;1.67;;;0.90;;
56037;SDS011;41907;47.848;9.000;2023-02-18T05:31:54;2.92;;;1.00;;
56037;SDS011;41907;47.848;9.000;2023-02-18T05:34:19;2.13;;;1.20;;
56037;SDS011;41907;47.848;9.000;2023-02-18T05:36:44;1.38;;;1.10;;
56037;SDS011;41907;47.848;9.000;2023-02-18T05:39:10;5.45;;;4.95;;
56037;SDS011;41907;47.848;9.000;2023-02-18T05:41:35;8.23;;;7.30;;
56037;SDS011;41907;47.848;9.000;2023-02-18T05:44:00;11.32;;;7.88;;
56037;SDS011;41907;47.848;9.000;2023-02-18T05:46:44;16.20;;;11.40;;
56037;SDS011;41907;47.848;9.000;2023-02-18T05:49:10;25.05;;;17.33;;
56037;SDS011;41907;47.848;9.000;2023-02-18T05:51:36;14.70;;;12.63;;
56037;SDS011;41907;47.848;9.000;2023-02-18T05:54:01;25.10;;;20.55;;
56037;SDS011;41907;47.848;9.000;2023-02-18T05:56:26;16.95;;;14.38;;
56037;SDS011;41907;47.848;9.000;2023-02-18T05:58:52;9.38;;;7.07;;
56037;SDS011;41907;47.848;9.000;2023-02-18T06:01:17;11.35;;;7.95;;
56037;SDS011;41907;47.848;9.000;2023-02-18T06:03:42;23.73;;;21.15;;
56037;SDS011;41907;47.848;9.000;2023-02-18T06:06:08;20.30;;;15.90;;
56037;SDS011;41907;47.848;9.000;2023-02-18T06:08:33;8.85;;;6.65;;
56037;SDS011;41907;47.848;9.000;2023-02-18T06:10:59;6.32;;;4.70;;
56037;SDS011;41907;47.848;9.000;2023-02-18T06:13:24;13.55;;;10.98;;
56037;SDS011;41907;47.848;9.000;2023-02-18T06:15:50;13.10;;;8.68;;
56037;SDS011;41907;47.848;9.000;2023-02-18T06:18:16;8.77;;;5.88;;
56037;SDS011;41907;47.848;9.000;2023-02-18T06:20:42;10.70;;;8.45;;
56037;SDS011;41907;47.848;9.000;2023-02-18T06:23:08;12.48;;;5.32;;
56037;SDS011;41907;47.848;9.000;2023-02-18T06:25:33;5.20;;;4.60;;
56037;SDS011;41907;47.848;9.000;2023-02-18T06:27:59;4.85;;;3.22;;
56037;SDS011;41907;47.848;9.000;2023-02-18T06:30:24;4.57;;;3.22;;
56037;SDS011;41907;47.848;9.000;2023-02-18T06:32:49;7.88;;;7.15;;
56037;SDS011;41907;47.848;9.000;2023-02-18T06:35:15;5.82;;;3.67;;
56037;SDS011;41907;47.848;9.000;2023-02-18T06:37:40;9.00;;;5.75;;
56037;SDS011;41907;47.848;9.000;2023-02-18T06:40:06;41.58;;;38.05;;
56037;SDS011;41907;47.848;9.000;2023-02-18T06:42:31;12.68;;;11.57;;
56037;SDS011;41907;47.848;9.000;2023-02-18T06:44:57;11.57;;;10.38;;
56037;SDS011;41907;47.848;9.000;2023-02-18T06:47:22;7.22;;;4.22;;
56037;SDS011;41907;47.848;9.000;2023-02-18T06:49:48;3.47;;;1.27;;
56037;SDS011;41907;47.848;9.000;2023-02-18T06:52:13;13.93;;;12.60;;
56037;SDS011;41907;47.848;9.000;2023-02-18T06:54:39;21.67;;;19.77;;
56037;SDS011;41907;47.848;9.000;2023-02-18T06:57:04;36.60;;;33.40;;
56037;SDS011;41907;47.848;9.000;2023-02-18T06:59:29;4.72;;;3.08;;
56037;SDS011;41907;47.848;9.000;2023-02-18T07:01:55;2.83;;;2.08;;
56037;SDS011;41907;47.848;9.000;2023-02-18T07:04:20;7.35;;;5.03;;
56037;SDS011;41907;47.848;9.000;2023-02-18T07:06:45;8.35;;;4.15;;
56037;SDS011;41907;47.848;9.000;2023-02-18T07:09:11;3.58;;;2.28;;
56037;SDS011;41907;47.848;9.000;2023-02-18T07:11:36;2.58;;;1.63;;
56037;SDS011;41907;47.848;9.000;2023-02-18T07:14:02;6.97;;;3.88;;
56037;SDS011;41907;47.848;9.000;2023-02-18T07:16:27;2.50;;;1.88;;
56037;SDS011;41907;47.848;9.000;2023-02-18T07:18:52;2.60;;;1.58;;
56037;SDS011;41907;47.848;9.000;2023-02-18T07:21:17;4.13;;;2.35;;
56037;SDS011;41907;47.848;9.000;2023-02-18T07:23:43;4.43;;;2.80;;
56037;SDS011;41907;47.848;9.000;2023-02-18T07:26:09;4.78;;;2.70;;
56037;SDS011;41907;47.848;9.000;2023-02-18T07:28:36;2.60;;;1.58;;
56037;SDS011;41907;47.848;9.000;2023-02-18T07:31:02;3.70;;;2.38;;
56037;SDS011;41907;47.848;9.000;2023-02-18T07:33:28;3.90;;;3.00;;
56037;SDS011;41907;47.848;9.000;2023-02-18T07:35:54;9.52;;;6.63;;
56037;SDS011;41907;47.848;9.000;2023-02-18T07:38:21;9.00;;;5.28;;
56037;SDS011;41907;47.848;9.000;2023-02-18T07:40:47;6.70;;;6.10;;
56037;SDS011;41907;47.848;9.000;2023-02-18T07:43:12;6.07;;;3.58;;
56037;SDS011;41907;47.848;9.000;2023-02-18T07:45:38;13.77;;;12.50;;
56037;SDS011;41907;47.848;9.000;2023-02-18T07:48:03;8.30;;;6.47;;
56037;SDS011;41907;47.848;9.000;2023-02-18T07:50:29;8.90;;;3.78;;
56037;SDS011;41907;47.848;9.000;2023-02-18T07:52:59;6.50;;;5.95;;
56037;SDS011;41907;47.848;9.000;2023-02-18T07:55:28;14.25;;;11.07;;
56037;SDS011;41907;47.848;9.000;2023-02-18T07:58:13;21.33;;;19.60;;
56037;SDS011;41907;47.848;9.000;2023-02-18T08:00:48;12.40;;;11.35;;
56037;SDS011;41907;47.848;9.000;2023-02-18T08:03:18;34.25;;;30.67;;
56037;SDS011;41907;47.848;9.000;2023-02-18T08:05:44;21.83;;;20.02;;
56037;SDS011;41907;47.848;9.000;2023-02-18T08:08:15;26.00;;;23.85;;
56037;SDS011;41907;47.848;9.000;2023-02-18T08:10:42;5.10;;;3.92;;
56037;SDS011;41907;47.848;9.000;2023-02-18T08:13:08;6.15;;;4.93;;
56037;SDS011;41907;47.848;9.000;2023-02-18T08:15:33;25.42;;;23.05;;
56037;SDS011;41907;47.848;9.000;2023-02-18T08:17:59;6.78;;;6.15;;
56037;SDS011;41907;47.848;9.000;2023-02-18T08:20:25;6.60;;;3.25;;
56037;SDS011;41907;47.848;9.000;2023-02-18T08:22:51;4.85;;;4.22;;
56037;SDS011;41907;47.848;9.000;2023-02-18T08:25:16;17.10;;;15.30;;
56037;SDS011;41907;47.848;9.000;2023-02-18T08:27:42;3.63;;;2.28;;
56037;SDS011;41907;47.848;9.000;2023-02-18T08:30:07;2.97;;;2.70;;
56037;SDS011;41907;47.848;9.000;2023-02-18T08:32:34;10.00;;;9.23;;
56037;SDS011;41907;47.848;9.000;2023-02-18T08:34:59;2.05;;;1.85;;
56037;SDS011;41907;47.848;9.000;2023-02-18T08:37:24;8.43;;;7.72;;
56037;SDS011;41907;47.848;9.000;2023-02-18T08:39:50;5.22;;;4.80;;
56037;SDS011;41907;47.848;9.000;2023-02-18T08:42:15;10.55;;;9.50;;
56037;SDS011;41907;47.848;9.000;2023-02-18T08:44:40;3.38;;;2.00;;
56037;SDS011;41907;47.848;9.000;2023-02-18T08:47:06;23.20;;;20.90;;
56037;SDS011;41907;47.848;9.000;2023-02-18T08:49:31;13.70;;;12.27;;
56037;SDS011;41907;47.848;9.000;2023-02-18T08:51:57;15.32;;;13.40;;
56037;SDS011;41907;47.848;9.000;2023-02-18T08:54:22;5.82;;;5.32;;
56037;SDS011;41907;47.848;9.000;2023-02-18T08:56:48;1.65;;;1.08;;
56037;SDS011;41907;47.848;9.000;2023-02-18T08:59:13;2.97;;;1.70;;
56037;SDS011;41907;47.848;9.000;2023-02-18T09:01:38;2.67;;;1.70;;
56037;SDS011;41907;47.848;9.000;2023-02-18T09:04:04;4.53;;;2.00;;
56037;SDS011;41907;47.848;9.000;2023-02-18T09:06:29;3.03;;;1.65;;
56037;SDS011;41907;47.848;9.000;2023-02-18T09:08:54;15.40;;;14.00;;
56037;SDS011;41907;47.848;9.000;2023-02-18T09:11:20;12.77;;;9.48;;
56037;SDS011;41907;47.848;9.000;2023-02-18T09:13:45;3.78;;;2.50;;
56037;SDS011;41907;47.848;9.000;2023-02-18T09:16:12;11.38;;;10.18;;
56037;SDS011;41907;47.848;9.000;2023-02-18T09:18:42;3.40;;;2.53;;
56037;SDS011;41907;47.848;9.000;2023-02-18T09:21:08;10.75;;;8.30;;
56037;SDS011;41907;47.848;9.000;2023-02-18T09:23:36;3.90;;;2.03;;
56037;SDS011;41907;47.848;9.000;2023-02-18T09:26:03;2.80;;;2.25;;
56037;SDS011;41907;47.848;9.000;2023-02-18T09:28:30;3.60;;;3.28;;
56037;SDS011;41907;47.848;9.000;2023-02-18T09:30:55;2.70;;;2.15;;
56037;SDS011;41907;47.848;9.000;2023-02-18T09:33:21;6.70;;;3.20;;
56037;SDS011;41907;47.848;9.000;2023-02-18T09:35:46;5.03;;;2.70;;
56037;SDS011;41907;47.848;9.000;2023-02-18T09:38:13;4.80;;;2.50;;
56037;SDS011;41907;47.848;9.000;2023-02-18T09:40:44;7.55;;;5.10;;
56037;SDS011;41907;47.848;9.000;2023-02-18T09:43:20;3.22;;;2.08;;
56037;SDS011;41907;47.848;9.000;2023-02-18T09:45:51;3.67;;;2.30;;
56037;SDS011;41907;47.848;9.000;2023-02-18T09:48:18;2.75;;;1.38;;
56037;SDS011;41907;47.848;9.000;2023-02-18T09:50:50;4.80;;;1.60;;
56037;SDS011;41907;47.848;9.000;2023-02-18T09:53:16;2.92;;;1.98;;
56037;SDS011;41907;47.848;9.000;2023-02-18T09:55:42;2.90;;;2.30;;
56037;SDS011;41907;47.848;9.000;2023-02-18T09:58:12;2.42;;;1.98;;
56037;SDS011;41907;47.848;9.000;2023-02-18T10:00:43;7.05;;;4.28;;
56037;SDS011;41907;47.848;9.000;2023-02-18T10:05:49;4.45;;;2.40;;
56037;SDS011;41907;47.848;9.000;2023-02-18T10:08:43;2.88;;;1.00;;
56037;SDS011;41907;47.848;9.000;2023-02-18T10:11:11;3.03;;;1.33;;
56037;SDS011;41907;47.848;9.000;2023-02-18T10:14:04;3.40;;;1.52;;
56037;SDS011;41907;47.848;9.000;2023-02-18T10:16:35;2.38;;;1.52;;
56037;SDS011;41907;47.848;9.000;2023-02-18T10:19:03;3.45;;;1.15;;
56037;SDS011;41907;47.848;9.000;2023-02-18T10:21:41;2.72;;;1.00;;
56037;SDS011;41907;47.848;9.000;2023-02-18T10:24:18;3.63;;;1.02;;
56037;SDS011;41907;47.848;9.000;2023-02-18T10:26:51;3.40;;;1.63;;
56037;SDS011;41907;47.848;9.000;2023-02-18T10:29:18;3.15;;;1.42;;
56037;SDS011;41907;47.848;9.000;2023-02-18T10:48:18;5.18;;;4.43;;
56037;SDS011;41907;47.848;9.000;2023-02-18T10:51:07;4.20;;;3.80;;
56037;SDS011;41907;47.848;9.000;2023-02-18T10:53:45;2.95;;;1.48;;
56037;SDS011;41907;47.848;9.000;2023-02-18T10:59:00;2.65;;;1.90;;
56037;SDS011;41907;47.848;9.000;2023-02-18T11:01:33;2.08;;;1.15;;
56037;SDS011;41907;47.848;9.000;2023-02-18T11:06:48;5.65;;;4.60;;
56037;SDS011;41907;47.848;9.000;2023-02-18T11:09:24;5.15;;;3.50;;
56037;SDS011;41907;47.848;9.000;2023-02-18T11:12:03;16.10;;;6.97;;
56037;SDS011;41907;47.848;9.000;2023-02-18T11:14:39;4.43;;;1.77;;
56037;SDS011;41907;47.848;9.000;2023-02-18T11:17:14;16.65;;;7.03;;
56037;SDS011;41907;47.848;9.000;2023-02-18T11:19:42;2.75;;;2.33;;
56037;SDS011;41907;47.848;9.000;2023-02-18T11:22:13;7.82;;;4.15;;
56037;SDS011;41907;47.848;9.000;2023-02-18T11:24:43;4.85;;;2.25;;
56037;SDS011;41907;47.848;9.000;2023-02-18T11:27:31;1.33;;;0.60;;
56037;SDS011;41907;47.848;9.000;2023-02-18T11:30:05;3.08;;;1.70;;
56037;SDS011;41907;47.848;9.000;2023-02-18T11:32:41;1.35;;;0.60;;
56037;SDS011;41907;47.848;9.000;2023-02-18T11:35:15;3.72;;;1.05;;
56037;SDS011;41907;47.848;9.000;2023-02-18T11:37:45;2.65;;;1.98;;
56037;SDS011;41907;47.848;9.000;2023-02-18T11:40:18;6.95;;;4.47;;
56037;SDS011;41907;47.848;9.000;2023-02-18T11:42:46;1.15;;;0.60;;
56037;SDS011;41907;47.848;9.000;2023-02-18T11:45:25;3.15;;;1.90;;
56037;SDS011;41907;47.848;9.000;2023-02-18T11:48:00;5.85;;;1.75;;
56037;SDS011;41907;47.848;9.000;2023-02-18T11:50:29;2.08;;;1.98;;
56037;SDS011;41907;47.848;9.000;2023-02-18T11:52:57;2.03;;;1.40;;
56037;SDS011;41907;47.848;9.000;2023-02-18T11:55:24;1.13;;;1.00;;
56037;SDS011;41907;47.848;9.000;2023-02-18T11:57:54;2.83;;;0.40;;
56037;SDS011;41907;47.848;9.000;2023-02-18T12:02:57;13.38;;;12.05;;
56037;SDS011;41907;47.848;9.000;2023-02-18T12:05:27;5.50;;;4.95;;
56037;SDS011;41907;47.848;9.000;2023-02-18T12:08:02;2.35;;;2.13;;
56037;SDS011;41907;47.848;9.000;2023-02-18T12:10:33;0.88;;;0.80;;
56037;SDS011;41907;47.848;9.000;2023-02-18T12:13:06;6.03;;;5.50;;
56037;SDS011;41907;47.848;9.000;2023-02-18T12:40:33;3.67;;;1.80;;
56037;SDS011;41907;47.848;9.000;2023-02-18T12:52:03;8.85;;;3.47;;
56037;SDS011;41907;47.848;9.000;2023-02-18T12:57:19;3.95;;;2.50;;
56037;SDS011;41907;47.848;9.000;2023-02-18T13:16:48;0.75;;;0.30;;
56037;SDS011;41907;47.848;9.000;2023-02-18T13:19:21;1.80;;;0.93;;
56037;SDS011;41907;47.848;9.000;2023-02-18T13:21:51;1.45;;;0.98;;
56037;SDS011;41907;47.848;9.000;2023-02-18T13:24:30;1.88;;;0.98;;
56037;SDS011;41907;47.848;9.000;2023-02-18T13:32:57;4.50;;;2.22;;
56037;SDS011;41907;47.848;9.000;2023-02-18T13:35:33;0.95;;;0.77;;
56037;SDS011;41907;47.848;9.000;2023-02-18T13:41:20;2.35;;;1.35;;
56037;SDS011;41907;47.848;9.000;2023-02-18T13:43:46;2.42;;;1.42;;
56037;SDS011;41907;47.848;9.000;2023-02-18T13:46:13;1.15;;;0.85;;
56037;SDS011;41907;47.848;9.000;2023-02-18T13:48:46;3.08;;;0.73;;
56037;SDS011;41907;47.848;9.000;2023-02-18T13:51:25;3.63;;;0.70;;
56037;SDS011;41907;47.848;9.000;2023-02-18T13:53:53;10.50;;;4.93;;
56037;SDS011;41907;47.848;9.000;2023-02-18T13:56:28;4.30;;;2.50;;
56037;SDS011;41907;47.848;9.000;2023-02-18T13:58:58;1.75;;;1.00;;
56037;SDS011;41907;47.848;9.000;2023-02-18T14:01:36;2.55;;;0.60;;
56037;SDS011;41907;47.848;9.000;2023-02-18T14:09:49;0.80;;;0.52;;
56037;SDS011;41907;47.848;9.000;2023-02-18T14:12:17;0.43;;;0.40;;
56037;SDS011;41907;47.848;9.000;2023-02-18T14:14:48;0.28;;;0.20;;
56037;SDS011;41907;47.848;9.000;2023-02-18T14:17:23;10.10;;;5.88;;
56037;SDS011;41907;47.848;9.000;2023-02-18T14:19:58;0.55;;;0.52;;
56037;SDS011;41907;47.848;9.000;2023-02-18T14:25:19;2.38;;;0.82;;
56037;SDS011;41907;47.848;9.000;2023-02-18T14:27:46;1.95;;;0.40;;
56037;SDS011;41907;47.848;9.000;2023-02-18T14:30:18;1.05;;;0.50;;
56037;SDS011;41907;47.848;9.000;2023-02-18T14:32:54;0.40;;;0.40;;
56037;SDS011;41907;47.848;9.000;2023-02-18T14:35:34;0.73;;;0.60;;
56037;SDS011;41907;47.848;9.000;2023-02-18T14:49:07;2.20;;;0.70;;
56037;SDS011;41907;47.848;9.000;2023-02-18T14:51:40;0.77;;;0.35;;
56037;SDS011;41907;47.848;9.000;2023-02-18T14:54:12;1.25;;;0.70;;
56037;SDS011;41907;47.848;9.000;2023-02-18T14:56:44;2.40;;;1.30;;
56037;SDS011;41907;47.848;9.000;2023-02-18T14:59:33;8.15;;;4.32;;
56037;SDS011;41907;47.848;9.000;2023-02-18T15:02:01;61.58;;;18.42;;
56037;SDS011;41907;47.848;9.000;2023-02-18T15:04:26;25.65;;;7.82;;
56037;SDS011;41907;47.848;9.000;2023-02-18T15:06:58;5.57;;;2.70;;
56037;SDS011;41907;47.848;9.000;2023-02-18T15:09:25;2.60;;;0.88;;
56037;SDS011;41907;47.848;9.000;2023-02-18T15:11:54;7.85;;;3.47;;
56037;SDS011;41907;47.848;9.000;2023-02-18T15:14:28;6.15;;;3.05;;
56037;SDS011;41907;47.848;9.000;2023-02-18T15:16:56;27.25;;;11.70;;
56037;SDS011;41907;47.848;9.000;2023-02-18T15:19:26;2.40;;;1.30;;
56037;SDS011;41907;47.848;9.000;2023-02-18T15:21:54;9.60;;;4.78;;
56037;SDS011;41907;47.848;9.000;2023-02-18T15:24:25;2.20;;;0.82;;
56037;SDS011;41907;47.848;9.000;2023-02-18T15:26:56;2.50;;;1.65;;
56037;SDS011;41907;47.848;9.000;2023-02-18T15:29:25;0.88;;;0.65;;
56037;SDS011;41907;47.848;9.000;2023-02-18T15:31:57;1.77;;;1.25;;
56037;SDS011;41907;47.848;9.000;2023-02-18T15:34:29;2.22;;;1.55;;
56037;SDS011;41907;47.848;9.000;2023-02-18T15:37:03;1.40;;;0.80;;
56037;SDS011;41907;47.848;9.000;2023-02-18T15:39:31;2.22;;;1.10;;
56037;SDS011;41907;47.848;9.000;2023-02-18T15:42:00;0.98;;;0.80;;
56037;SDS011;41907;47.848;9.000;2023-02-18T15:47:03;0.80;;;0.70;;
56037;SDS011;41907;47.848;9.000;2023-02-18T15:49:32;0.63;;;0.63;;
56037;SDS011;41907;47.848;9.000;2023-02-18T15:52:01;1.80;;;1.23;;
56037;SDS011;41907;47.848;9.000;2023-02-18T15:54:27;1.67;;;1.00;;
56037;SDS011;41907;47.848;9.000;2023-02-18T15:56:54;1.02;;;0.85;;
56037;SDS011;41907;47.848;9.000;2023-02-18T15:59:25;2.85;;;0.60;;
56037;SDS011;41907;47.848;9.000;2023-02-18T16:02:18;0.60;;;0.60;;
56037;SDS011;41907;47.848;9.000;2023-02-18T16:04:51;0.88;;;0.50;;
56037;SDS011;41907;47.848;9.000;2023-02-18T16:07:30;1.45;;;0.70;;
56037;SDS011;41907;47.848;9.000;2023-02-18T16:10:07;22.60;;;11.18;;
56037;SDS011;41907;47.848;9.000;2023-02-18T16:12:40;36.25;;;14.95;;
56037;SDS011;41907;47.848;9.000;2023-02-18T16:15:13;9.82;;;3.70;;
56037;SDS011;41907;47.848;9.000;2023-02-18T16:17:46;2.13;;;0.98;;
56037;SDS011;41907;47.848;9.000;2023-02-18T16:20:23;5.82;;;1.98;;
56037;SDS011;41907;47.848;9.000;2023-02-18T16:22:53;3.10;;;1.80;;
56037;SDS011;41907;47.848;9.000;2023-02-18T16:25:23;3.47;;;2.22;;
56037;SDS011;41907;47.848;9.000;2023-02-18T16:28:24;1.40;;;0.80;;
56037;SDS011;41907;47.848;9.000;2023-02-18T16:30:53;1.10;;;0.60;;
56037;SDS011;41907;47.848;9.000;2023-02-18T16:33:19;1.85;;;0.65;;
56037;SDS011;41907;47.848;9.000;2023-02-18T16:35:44;1.45;;;0.95;;
56037;SDS011;41907;47.848;9.000;2023-02-18T16:38:14;1.88;;;0.70;;
56037;SDS011;41907;47.848;9.000;2023-02-18T16:40:41;2.17;;;1.70;;
56037;SDS011;41907;47.848;9.000;2023-02-18T16:45:38;13.70;;;8.02;;
56037;SDS011;41907;47.848;9.000;2023-02-18T16:48:16;5.15;;;3.83;;
56037;SDS011;41907;47.848;9.000;2023-02-18T16:51:03;1.30;;;1.00;;
56037;SDS011;41907;47.848;9.000;2023-02-18T16:53:31;0.95;;;0.70;;
56037;SDS011;41907;47.848;9.000;2023-02-18T16:55:56;5.78;;;4.28;;
56037;SDS011;41907;47.848;9.000;2023-02-18T16:58:22;2.22;;;1.23;;
56037;SDS011;41907;47.848;9.000;2023-02-18T17:00:48;1.25;;;0.80;;
56037;SDS011;41907;47.848;9.000;2023-02-18T17:03:16;28.02;;;14.65;;
56037;SDS011;41907;47.848;9.000;2023-02-18T17:05:42;38.17;;;17.48;;
56037;SDS011;41907;47.848;9.000;2023-02-18T17:08:13;26.85;;;13.23;;
56037;SDS011;41907;47.848;9.000;2023-02-18T17:10:50;9.93;;;6.28;;
56037;SDS011;41907;47.848;9.000;2023-02-18T17:13:21;2.50;;;1.88;;
56037;SDS011;41907;47.848;9.000;2023-02-18T17:15:52;1.05;;;0.80;;
56037;SDS011;41907;47.848;9.000;2023-02-18T17:18:19;8.95;;;6.28;;
56037;SDS011;41907;47.848;9.000;2023-02-18T17:20:45;1.58;;;0.95;;
56037;SDS011;41907;47.848;9.000;2023-02-18T17:23:16;4.22;;;2.00;;
56037;SDS011;41907;47.848;9.000;2023-02-18T17:25:45;3.20;;;2.08;;
56037;SDS011;41907;47.848;9.000;2023-02-18T17:28:12;3.67;;;1.83;;